Time;durP1;ratioP1;P1;durP2;ratioP2;P2;SDS_P1;SDS_P2;PMS_P1;PMS_P2;Temp;Humidity;BMP_temperature;BMP_pressure;BME280_temperature;BME280_humidity;BME280_pressure;Samples;Min_cycle;Max_cycle;Signal;HPM_P1;HPM_P2
2022/06/30 00:01:00;;;;;;;17.63;11.77;;;;;;;;;;4941094;28;20422;-76
2022/06/30 00:03:27;;;;;;;16.37;11.43;;;;;;;;;;4943269;28;20294;-76
2022/06/30 00:05:54;;;;;;;21.80;12.20;;;;;;;;;;4945282;28;20577;-77
2022/06/30 00:08:21;;;;;;;17.77;11.83;;;;;;;;;;4945119;28;20309;-78
2022/06/30 00:10:50;;;;;;;16.50;12.37;;;;;;;;;;4940700;28;20669;-77
2022/06/30 00:13:17;;;;;;;17.43;11.73;;;;;;;;;;4945515;28;20203;-77
2022/06/30 00:15:44;;;;;;;17.83;11.37;;;;;;;;;;4942363;28;20321;-78
2022/06/30 00:18:11;;;;;;;17.60;11.90;;;;;;;;;;4945166;28;20298;-77
2022/06/30 00:20:38;;;;;;;24.37;12.27;;;;;;;;;;4942246;28;20209;-77
2022/06/30 00:23:06;;;;;;;19.80;11.70;;;;;;;;;;4941318;28;20207;-77
2022/06/30 00:25:33;;;;;;;18.07;11.87;;;;;;;;;;4943524;28;20229;-76
2022/06/30 00:28:01;;;;;;;18.40;11.80;;;;;;;;;;4942588;28;20194;-74
2022/06/30 00:30:29;;;;;;;18.50;12.10;;;;;;;;;;4940285;28;20632;-77
2022/06/30 00:32:56;;;;;;;16.07;11.47;;;;;;;;;;4942930;28;20258;-78
2022/06/30 00:35:23;;;;;;;17.67;12.33;;;;;;;;;;4944088;28;20314;-77
2022/06/30 00:37:51;;;;;;;22.47;12.83;;;;;;;;;;4944915;28;20258;-77
2022/06/30 00:40:18;;;;;;;23.27;12.70;;;;;;;;;;4943506;28;20208;-77
2022/06/30 00:42:45;;;;;;;22.57;12.97;;;;;;;;;;4940195;28;20218;-77
2022/06/30 00:45:14;;;;;;;21.37;13.00;;;;;;;;;;4946668;28;20225;-76
2022/06/30 00:47:41;;;;;;;18.73;13.17;;;;;;;;;;4947187;28;20684;-78
2022/06/30 00:50:09;;;;;;;21.23;13.27;;;;;;;;;;4949366;28;20206;-78
2022/06/30 00:52:37;;;;;;;19.27;12.70;;;;;;;;;;4949943;28;20210;-77
2022/06/30 00:55:05;;;;;;;25.73;13.20;;;;;;;;;;4942747;28;20239;-76
2022/06/30 00:57:32;;;;;;;19.10;12.93;;;;;;;;;;4948654;28;20318;-75
2022/06/30 00:59:59;;;;;;;19.57;11.83;;;;;;;;;;4942852;28;20203;-78
2022/06/30 01:02:28;;;;;;;18.63;12.13;;;;;;;;;;4946562;28;20202;-77
2022/06/30 01:04:57;;;;;;;21.10;12.73;;;;;;;;;;4943550;28;20219;-78
2022/06/30 01:07:24;;;;;;;28.30;12.90;;;;;;;;;;4947392;28;20655;-77
2022/06/30 01:12:45;;;;;;;21.23;12.60;;;;;;;;;;4942281;28;20578;-77
2022/06/30 01:15:13;;;;;;;21.80;12.40;;;;;;;;;;4946563;28;20314;-77
2022/06/30 01:17:41;;;;;;;22.97;13.00;;;;;;;;;;4946329;28;20315;-77
2022/06/30 01:20:09;;;;;;;17.43;12.57;;;;;;;;;;4947596;28;20696;-75
2022/06/30 01:22:38;;;;;;;20.73;13.57;;;;;;;;;;4946820;28;20673;-77
2022/06/30 01:25:05;;;;;;;18.17;12.53;;;;;;;;;;4944914;28;20233;-76
2022/06/30 01:27:32;;;;;;;20.73;13.43;;;;;;;;;;4945794;28;20194;-77
2022/06/30 01:30:01;;;;;;;25.13;13.83;;;;;;;;;;4947102;28;20210;-76
2022/06/30 01:32:29;;;;;;;21.70;13.73;;;;;;;;;;4946033;28;20202;-77
2022/06/30 01:34:56;;;;;;;18.33;13.30;;;;;;;;;;4944970;28;20277;-77
2022/06/30 01:37:23;;;;;;;20.57;13.40;;;;;;;;;;4944775;28;20745;-76
2022/06/30 01:39:52;;;;;;;20.37;13.90;;;;;;;;;;4942043;28;20211;-75
2022/06/30 01:42:20;;;;;;;20.27;13.27;;;;;;;;;;4947606;28;20201;-76
2022/06/30 01:44:47;;;;;;;20.87;11.70;;;;;;;;;;4941419;28;20728;-75
2022/06/30 01:47:14;;;;;;;17.17;12.37;;;;;;;;;;4946622;28;20202;-77
2022/06/30 01:49:41;;;;;;;19.30;12.80;;;;;;;;;;4940705;28;20212;-76
2022/06/30 01:52:09;;;;;;;19.17;13.60;;;;;;;;;;4943649;28;20276;-77
2022/06/30 01:54:36;;;;;;;18.30;13.10;;;;;;;;;;4946573;28;20321;-76
2022/06/30 01:57:06;;;;;;;21.90;13.30;;;;;;;;;;4946649;28;20704;-77
2022/06/30 01:59:33;;;;;;;18.60;13.17;;;;;;;;;;4944940;28;20213;-74
2022/06/30 02:02:00;;;;;;;23.07;14.13;;;;;;;;;;4944587;28;20206;-77
2022/06/30 02:07:12;;;;;;;20.50;12.97;;;;;;;;;;4946904;28;20672;-76
2022/06/30 02:09:39;;;;;;;21.57;14.73;;;;;;;;;;4949032;28;20214;-76
2022/06/30 02:14:54;;;;;;;21.43;13.10;;;;;;;;;;4952994;28;20249;-76
2022/06/30 02:17:21;;;;;;;22.17;13.83;;;;;;;;;;4942343;28;20227;-77
2022/06/30 02:19:48;;;;;;;21.43;14.63;;;;;;;;;;4945506;28;20206;-76
2022/06/30 02:22:16;;;;;;;22.97;14.10;;;;;;;;;;4942836;28;20217;-77
2022/06/30 02:24:43;;;;;;;25.60;14.33;;;;;;;;;;4947003;28;20236;-77
2022/06/30 02:27:11;;;;;;;18.80;13.50;;;;;;;;;;4943730;28;20207;-77
2022/06/30 02:29:39;;;;;;;23.13;14.00;;;;;;;;;;4944461;28;20202;-75
2022/06/30 02:32:06;;;;;;;20.50;13.23;;;;;;;;;;4944075;28;20203;-76
2022/06/30 02:34:33;;;;;;;19.87;13.53;;;;;;;;;;4947845;28;20318;-74
2022/06/30 02:37:01;;;;;;;20.13;13.70;;;;;;;;;;4945940;28;20226;-77
2022/06/30 02:39:28;;;;;;;22.07;14.23;;;;;;;;;;4946823;28;20207;-77
2022/06/30 02:41:55;;;;;;;21.53;13.90;;;;;;;;;;4945558;28;20258;-77
2022/06/30 02:44:23;;;;;;;20.00;13.63;;;;;;;;;;4946211;28;20709;-77
2022/06/30 02:46:51;;;;;;;19.90;14.10;;;;;;;;;;4942471;28;20744;-76
2022/06/30 02:49:19;;;;;;;22.43;14.30;;;;;;;;;;4942906;28;20203;-77
2022/06/30 02:51:46;;;;;;;22.83;13.43;;;;;;;;;;4940452;28;20210;-77
2022/06/30 02:54:13;;;;;;;20.87;14.47;;;;;;;;;;4941413;28;20230;-77
2022/06/30 02:56:40;;;;;;;22.30;14.50;;;;;;;;;;4939364;28;20203;-77
2022/06/30 02:59:08;;;;;;;23.30;14.33;;;;;;;;;;4942120;28;20293;-76
2022/06/30 03:01:36;;;;;;;19.97;13.53;;;;;;;;;;4945544;28;20646;-76
2022/06/30 03:04:04;;;;;;;21.77;14.23;;;;;;;;;;4942601;28;20310;-77
2022/06/30 03:06:31;;;;;;;21.93;14.57;;;;;;;;;;4942817;28;20313;-77
2022/06/30 03:08:58;;;;;;;18.87;14.17;;;;;;;;;;4940627;28;20242;-75
2022/06/30 03:11:26;;;;;;;22.43;13.97;;;;;;;;;;4943207;28;20231;-77
2022/06/30 03:13:53;;;;;;;24.27;14.40;;;;;;;;;;4941557;28;20598;-77
2022/06/30 03:16:21;;;;;;;23.63;13.67;;;;;;;;;;4941235;28;20213;-77
2022/06/30 03:18:50;;;;;;;21.77;13.37;;;;;;;;;;4943973;28;20250;-75
2022/06/30 03:21:17;;;;;;;23.70;14.57;;;;;;;;;;4940578;28;20203;-76
2022/06/30 03:23:44;;;;;;;26.87;13.20;;;;;;;;;;4943083;28;20211;-76
2022/06/30 03:26:11;;;;;;;19.00;13.73;;;;;;;;;;4942953;28;20207;-77
2022/06/30 03:28:38;;;;;;;21.80;14.43;;;;;;;;;;4944321;28;20245;-76
2022/06/30 03:31:06;;;;;;;22.00;14.73;;;;;;;;;;4939215;28;20299;-76
2022/06/30 03:33:33;;;;;;;21.13;14.90;;;;;;;;;;4942720;28;20207;-75
2022/06/30 03:36:02;;;;;;;22.47;15.37;;;;;;;;;;4942204;28;20203;-76
2022/06/30 03:38:29;;;;;;;21.67;14.80;;;;;;;;;;4945564;28;20317;-75
2022/06/30 03:40:56;;;;;;;23.73;13.97;;;;;;;;;;4942494;28;20213;-77
2022/06/30 03:43:23;;;;;;;20.50;13.30;;;;;;;;;;4943218;28;20202;-74
2022/06/30 03:45:50;;;;;;;21.00;13.73;;;;;;;;;;4942106;28;20235;-75
2022/06/30 03:48:17;;;;;;;19.53;12.67;;;;;;;;;;4940964;28;20203;-77
2022/06/30 03:50:44;;;;;;;21.50;13.80;;;;;;;;;;4940323;28;20303;-77
2022/06/30 03:53:13;;;;;;;18.53;12.07;;;;;;;;;;4940515;28;20573;-75
2022/06/30 03:55:40;;;;;;;18.33;12.83;;;;;;;;;;4940424;28;20234;-74
2022/06/30 03:58:08;;;;;;;20.67;12.90;;;;;;;;;;4943839;28;20230;-76
2022/06/30 04:00:35;;;;;;;21.20;11.87;;;;;;;;;;4943194;28;20694;-77
2022/06/30 04:03:03;;;;;;;20.47;12.67;;;;;;;;;;4941218;28;20207;-77
2022/06/30 04:05:30;;;;;;;23.67;11.93;;;;;;;;;;4943627;28;20313;-77
2022/06/30 04:07:57;;;;;;;18.77;12.20;;;;;;;;;;4943681;28;20229;-76
2022/06/30 04:10:25;;;;;;;18.77;11.90;;;;;;;;;;4941664;28;20300;-77
2022/06/30 04:12:53;;;;;;;16.17;11.60;;;;;;;;;;4942547;28;20201;-77
2022/06/30 04:15:20;;;;;;;16.37;11.60;;;;;;;;;;4942441;28;20233;-77
2022/06/30 04:17:47;;;;;;;16.47;11.43;;;;;;;;;;4940447;28;20233;-76
2022/06/30 04:20:17;;;;;;;19.10;11.77;;;;;;;;;;4942552;28;20215;-75
2022/06/30 04:22:45;;;;;;;15.90;11.43;;;;;;;;;;4940162;28;20241;-76
2022/06/30 04:25:12;;;;;;;18.03;11.60;;;;;;;;;;4948865;28;20230;-77
2022/06/30 04:27:48;;;;;;;18.53;10.73;;;;;;;;;;4948830;28;20561;-75
2022/06/30 04:32:37;;;;;;;14.13;10.47;;;;;;;;;;4944198;28;20709;-77
2022/06/30 04:33:02;;;;;;;15.93;10.33;;;;;;;;;;4946499;28;20213;-76
2022/06/30 04:35:29;;;;;;;16.47;10.43;;;;;;;;;;4947283;28;20573;-77
2022/06/30 04:37:58;;;;;;;25.07;10.80;;;;;;;;;;4943423;28;20230;-77
2022/06/30 04:43:11;;;;;;;15.20;10.57;;;;;;;;;;4944177;28;20282;-77
2022/06/30 04:45:38;;;;;;;15.77;10.40;;;;;;;;;;4948378;28;20905;-73
2022/06/30 04:48:06;;;;;;;15.33;9.33;;;;;;;;;;4944570;28;20294;-76
2022/06/30 04:50:33;;;;;;;12.30;9.83;;;;;;;;;;4950051;28;20209;-75
2022/06/30 04:53:00;;;;;;;13.33;9.90;;;;;;;;;;4943623;28;20297;-77
2022/06/30 04:55:28;;;;;;;12.77;9.17;;;;;;;;;;4944747;28;20233;-76
2022/06/30 04:57:55;;;;;;;14.67;9.70;;;;;;;;;;4942230;28;20226;-77
2022/06/30 05:00:23;;;;;;;14.70;9.40;;;;;;;;;;4946062;28;20210;-76
2022/06/30 05:02:50;;;;;;;14.07;8.70;;;;;;;;;;4942241;28;20207;-75
2022/06/30 05:05:18;;;;;;;14.57;9.27;;;;;;;;;;4944928;28;20312;-77
2022/06/30 05:07:45;;;;;;;10.97;8.93;;;;;;;;;;4942939;28;20218;-75
2022/06/30 05:10:12;;;;;;;11.20;9.27;;;;;;;;;;4948175;28;20328;-77
2022/06/30 05:12:39;;;;;;;15.43;8.93;;;;;;;;;;4944623;28;20302;-77
2022/06/30 05:15:07;;;;;;;14.33;9.97;;;;;;;;;;4945093;28;20227;-76
2022/06/30 05:17:35;;;;;;;13.67;9.93;;;;;;;;;;4944693;28;20230;-76
2022/06/30 05:20:03;;;;;;;11.53;8.63;;;;;;;;;;4946682;28;20297;-77
2022/06/30 05:22:31;;;;;;;13.80;9.20;;;;;;;;;;4947926;28;20199;-76
2022/06/30 05:27:45;;;;;;;13.50;10.27;;;;;;;;;;4946666;28;20218;-75
2022/06/30 05:30:12;;;;;;;18.40;9.90;;;;;;;;;;4944786;28;20200;-76
2022/06/30 05:32:41;;;;;;;15.10;9.97;;;;;;;;;;4948366;28;20230;-77
2022/06/30 05:35:09;;;;;;;16.93;10.00;;;;;;;;;;4947438;28;20314;-75
2022/06/30 05:37:39;;;;;;;13.20;9.50;;;;;;;;;;4945192;28;20198;-75
2022/06/30 05:40:06;;;;;;;14.17;9.43;;;;;;;;;;4942039;28;20959;-76
2022/06/30 05:42:34;;;;;;;15.50;9.53;;;;;;;;;;4944365;28;20693;-76
2022/06/30 05:45:01;;;;;;;18.53;9.17;;;;;;;;;;4943344;28;20228;-76
2022/06/30 05:47:28;;;;;;;15.57;9.80;;;;;;;;;;4948311;28;20208;-76
2022/06/30 05:49:57;;;;;;;15.00;10.37;;;;;;;;;;4944612;28;20208;-76
2022/06/30 05:52:24;;;;;;;14.63;10.57;;;;;;;;;;4941858;28;20203;-77
2022/06/30 05:54:51;;;;;;;14.43;10.37;;;;;;;;;;4942954;28;20240;-76
2022/06/30 05:57:18;;;;;;;17.70;10.97;;;;;;;;;;4945118;28;20235;-77
2022/06/30 05:59:46;;;;;;;16.63;10.63;;;;;;;;;;4944644;28;20238;-77
2022/06/30 06:02:13;;;;;;;17.80;10.77;;;;;;;;;;4942928;28;20201;-77
2022/06/30 06:04:40;;;;;;;16.93;10.80;;;;;;;;;;4948758;28;20596;-77
2022/06/30 06:07:09;;;;;;;14.97;10.30;;;;;;;;;;4940806;28;21620;-77
2022/06/30 06:09:36;;;;;;;15.00;9.80;;;;;;;;;;4943445;28;20209;-76
2022/06/30 06:12:03;;;;;;;16.80;10.33;;;;;;;;;;4947873;28;20654;-77
2022/06/30 06:14:30;;;;;;;12.73;9.13;;;;;;;;;;4949240;28;20235;-77
2022/06/30 06:16:57;;;;;;;14.37;10.30;;;;;;;;;;4946653;28;20214;-77
2022/06/30 06:19:24;;;;;;;14.40;10.83;;;;;;;;;;4945909;28;20274;-77
2022/06/30 06:21:52;;;;;;;13.53;9.83;;;;;;;;;;4946103;28;20206;-75
2022/06/30 06:24:20;;;;;;;12.07;8.93;;;;;;;;;;4945100;28;20230;-77
2022/06/30 06:26:47;;;;;;;12.83;9.17;;;;;;;;;;4944038;28;20217;-77
2022/06/30 06:29:15;;;;;;;12.63;9.57;;;;;;;;;;4947596;28;20226;-77
2022/06/30 06:31:42;;;;;;;9.67;8.07;;;;;;;;;;4944508;28;20198;-76
2022/06/30 06:34:10;;;;;;;11.45;8.70;;;;;;;;;;4941620;28;20230;-77
2022/06/30 06:36:37;;;;;;;11.27;8.70;;;;;;;;;;4941804;28;20661;-77
2022/06/30 06:39:04;;;;;;;12.38;8.95;;;;;;;;;;4943597;28;20233;-77
2022/06/30 06:41:33;;;;;;;11.70;9.13;;;;;;;;;;4946500;28;20208;-77
2022/06/30 06:44:00;;;;;;;11.05;8.82;;;;;;;;;;4943777;28;20238;-77
2022/06/30 06:46:27;;;;;;;12.57;8.32;;;;;;;;;;4945093;28;20203;-77
2022/06/30 06:48:55;;;;;;;11.75;8.68;;;;;;;;;;4946723;28;20216;-74
2022/06/30 06:51:22;;;;;;;11.32;8.50;;;;;;;;;;4940370;28;20576;-77
2022/06/30 06:53:50;;;;;;;14.48;8.13;;;;;;;;;;4945388;28;20237;-77
2022/06/30 06:56:17;;;;;;;11.15;8.07;;;;;;;;;;4942992;28;20305;-76
2022/06/30 06:58:46;;;;;;;13.57;8.25;;;;;;;;;;4944095;28;20228;-77
2022/06/30 07:01:13;;;;;;;13.50;8.35;;;;;;;;;;4941200;28;20337;-76
2022/06/30 07:03:41;;;;;;;9.98;8.20;;;;;;;;;;4947379;28;20213;-77
2022/06/30 07:06:08;;;;;;;12.85;7.82;;;;;;;;;;4940735;28;20220;-73
2022/06/30 07:08:35;;;;;;;10.35;7.80;;;;;;;;;;4947147;28;20677;-77
2022/06/30 07:11:03;;;;;;;14.93;8.48;;;;;;;;;;4939242;28;20205;-77
2022/06/30 07:13:31;;;;;;;10.57;8.07;;;;;;;;;;4947624;28;20209;-77
2022/06/30 07:16:00;;;;;;;9.40;8.10;;;;;;;;;;4946833;28;20301;-77
2022/06/30 07:18:28;;;;;;;9.48;7.60;;;;;;;;;;4945333;28;20742;-77
2022/06/30 07:20:55;;;;;;;9.38;7.78;;;;;;;;;;4947984;28;20281;-76
2022/06/30 07:23:22;;;;;;;10.20;7.63;;;;;;;;;;4946159;28;20205;-77
2022/06/30 07:25:50;;;;;;;9.30;7.85;;;;;;;;;;4948279;28;20308;-76
2022/06/30 07:28:17;;;;;;;14.13;7.63;;;;;;;;;;4947188;28;20689;-77
2022/06/30 07:30:44;;;;;;;12.82;7.95;;;;;;;;;;4943720;28;20214;-77
2022/06/30 07:33:12;;;;;;;10.30;8.13;;;;;;;;;;4941150;28;20297;-78
2022/06/30 07:35:39;;;;;;;12.35;8.18;;;;;;;;;;4947068;28;20232;-78
2022/06/30 07:38:07;;;;;;;11.13;7.30;;;;;;;;;;4940642;28;20214;-77
2022/06/30 07:40:34;;;;;;;13.25;8.30;;;;;;;;;;4945634;28;20324;-78
2022/06/30 07:43:01;;;;;;;10.02;7.72;;;;;;;;;;4945575;28;20206;-78
2022/06/30 07:45:28;;;;;;;10.63;7.78;;;;;;;;;;4947555;28;20253;-77
2022/06/30 07:47:55;;;;;;;13.18;7.72;;;;;;;;;;4944062;28;20789;-76
2022/06/30 07:50:24;;;;;;;9.63;7.95;;;;;;;;;;4942737;28;20796;-76
2022/06/30 07:52:52;;;;;;;12.43;7.75;;;;;;;;;;4943766;28;20600;-78
2022/06/30 07:55:19;;;;;;;13.75;8.90;;;;;;;;;;4945735;28;20238;-78
2022/06/30 07:57:48;;;;;;;13.65;7.70;;;;;;;;;;4947939;28;20216;-76
2022/06/30 08:00:15;;;;;;;13.68;7.93;;;;;;;;;;4941722;28;20207;-77
2022/06/30 08:02:43;;;;;;;20.52;8.35;;;;;;;;;;4944217;28;20229;-77
2022/06/30 08:05:10;;;;;;;16.77;8.65;;;;;;;;;;4942799;28;20321;-77
2022/06/30 08:07:39;;;;;;;20.20;8.77;;;;;;;;;;4945946;28;20213;-77
2022/06/30 08:10:06;;;;;;;12.90;8.23;;;;;;;;;;4941923;28;20225;-77
2022/06/30 08:12:34;;;;;;;12.50;8.40;;;;;;;;;;4940455;28;20209;-77
2022/06/30 08:15:01;;;;;;;14.98;7.82;;;;;;;;;;4934943;28;20225;-74
2022/06/30 08:17:30;;;;;;;13.10;7.78;;;;;;;;;;4938813;28;20215;-77
2022/06/30 08:19:57;;;;;;;16.70;7.88;;;;;;;;;;4939281;28;20202;-76
2022/06/30 08:22:24;;;;;;;10.93;7.88;;;;;;;;;;4934911;28;20586;-76
2022/06/30 08:24:54;;;;;;;10.50;7.20;;;;;;;;;;4942496;28;20226;-75
2022/06/30 08:27:21;;;;;;;10.40;7.07;;;;;;;;;;4938767;28;20274;-75
2022/06/30 08:29:49;;;;;;;13.00;7.35;;;;;;;;;;4938896;28;20236;-78
2022/06/30 08:32:16;;;;;;;14.60;7.45;;;;;;;;;;4939779;28;20213;-75
2022/06/30 08:34:43;;;;;;;15.15;7.97;;;;;;;;;;4940020;28;20230;-78
2022/06/30 08:37:11;;;;;;;13.25;7.28;;;;;;;;;;4941697;28;20206;-78
2022/06/30 08:42:25;;;;;;;9.80;6.70;;;;;;;;;;4942172;28;20335;-77
2022/06/30 08:47:34;;;;;;;14.70;7.30;;;;;;;;;;4942445;28;20607;-77
2022/06/30 08:50:01;;;;;;;9.95;7.13;;;;;;;;;;4938841;28;20339;-76
2022/06/30 08:52:30;;;;;;;7.63;6.72;;;;;;;;;;4937616;28;20671;-77
2022/06/30 08:54:58;;;;;;;11.13;7.88;;;;;;;;;;4939015;28;20235;-77
2022/06/30 08:57:26;;;;;;;11.38;7.28;;;;;;;;;;4941821;28;20678;-76
2022/06/30 08:59:54;;;;;;;12.87;7.47;;;;;;;;;;4942345;28;20211;-74
2022/06/30 09:02:21;;;;;;;12.57;6.50;;;;;;;;;;4936790;28;20231;-76
2022/06/30 09:04:48;;;;;;;9.50;6.70;;;;;;;;;;4938770;28;20227;-77
2022/06/30 09:07:15;;;;;;;10.53;6.80;;;;;;;;;;4933725;28;20199;-76
2022/06/30 09:09:42;;;;;;;9.53;7.00;;;;;;;;;;4940473;28;20236;-75
2022/06/30 09:12:15;;;;;;;10.37;6.13;;;;;;;;;;4942371;28;20216;-77
2022/06/30 09:14:45;;;;;;;10.50;6.73;;;;;;;;;;4941826;28;20600;-76
2022/06/30 09:17:14;;;;;;;14.70;6.57;;;;;;;;;;4938677;28;20251;-77
2022/06/30 09:19:51;;;;;;;10.37;6.60;;;;;;;;;;4942685;28;20295;-76
2022/06/30 09:22:19;;;;;;;11.07;7.40;;;;;;;;;;4939611;28;21173;-76
2022/06/30 09:24:46;;;;;;;9.97;6.90;;;;;;;;;;4942784;28;20234;-76
2022/06/30 09:27:19;;;;;;;12.63;6.23;;;;;;;;;;4941538;28;20215;-76
2022/06/30 09:29:52;;;;;;;8.60;5.60;;;;;;;;;;4943502;28;20234;-76
2022/06/30 09:32:20;;;;;;;12.93;6.10;;;;;;;;;;4941590;28;20207;-74
2022/06/30 09:34:48;;;;;;;8.80;5.37;;;;;;;;;;4942938;28;20838;-73
2022/06/30 09:37:16;;;;;;;12.83;5.87;;;;;;;;;;4946424;28;20207;-73
2022/06/30 09:39:44;;;;;;;8.77;5.60;;;;;;;;;;4942445;28;20764;-76
2022/06/30 09:44:53;;;;;;;10.67;5.30;;;;;;;;;;4939184;28;20233;-72
2022/06/30 09:47:21;;;;;;;6.27;4.67;;;;;;;;;;4940712;28;20209;-76
2022/06/30 09:49:49;;;;;;;8.33;5.47;;;;;;;;;;4938240;28;20731;-76
2022/06/30 09:52:17;;;;;;;5.93;3.90;;;;;;;;;;4934655;28;20215;-74
2022/06/30 09:54:54;;;;;;;4.63;3.87;;;;;;;;;;4937156;28;20683;-74
2022/06/30 09:57:22;;;;;;;6.37;3.10;;;;;;;;;;4940481;28;20644;-74
2022/06/30 09:59:58;;;;;;;4.33;2.60;;;;;;;;;;4939082;28;20239;-76
2022/06/30 10:02:30;;;;;;;6.60;2.50;;;;;;;;;;4939994;28;20210;-76
2022/06/30 10:04:58;;;;;;;3.60;2.77;;;;;;;;;;4938316;28;20225;-76
2022/06/30 10:07:26;;;;;;;5.83;3.40;;;;;;;;;;4937691;28;20204;-76
2022/06/30 10:09:53;;;;;;;6.43;3.60;;;;;;;;;;4943296;28;20245;-76
2022/06/30 10:12:21;;;;;;;8.40;3.93;;;;;;;;;;4943980;28;20296;-73
2022/06/30 10:14:49;;;;;;;4.30;3.33;;;;;;;;;;4947271;28;20238;-77
2022/06/30 10:17:17;;;;;;;7.93;3.90;;;;;;;;;;4941495;28;20220;-76
2022/06/30 10:19:46;;;;;;;5.80;3.60;;;;;;;;;;4944407;28;20682;-77
2022/06/30 10:22:15;;;;;;;4.80;3.70;;;;;;;;;;4938577;28;20241;-76
2022/06/30 10:24:42;;;;;;;9.60;3.67;;;;;;;;;;4938851;28;20230;-76
2022/06/30 10:27:13;;;;;;;5.90;3.70;;;;;;;;;;4938376;28;20214;-76
2022/06/30 10:29:41;;;;;;;5.33;3.13;;;;;;;;;;4941596;28;20789;-77
2022/06/30 10:32:10;;;;;;;8.50;3.30;;;;;;;;;;4939435;28;20239;-76
2022/06/30 10:34:40;;;;;;;5.97;3.47;;;;;;;;;;4941258;28;20230;-75
2022/06/30 10:37:12;;;;;;;5.90;3.33;;;;;;;;;;4936040;28;20209;-75
2022/06/30 10:39:45;;;;;;;7.10;3.53;;;;;;;;;;4935049;28;20205;-76
2022/06/30 10:42:22;;;;;;;4.13;3.40;;;;;;;;;;4940085;28;20212;-74
2022/06/30 10:44:49;;;;;;;5.00;3.30;;;;;;;;;;4941458;28;20227;-76
2022/06/30 10:47:16;;;;;;;4.60;3.53;;;;;;;;;;4943901;28;20236;-76
2022/06/30 10:49:53;;;;;;;5.93;3.50;;;;;;;;;;4938693;28;20371;-76
2022/06/30 10:52:25;;;;;;;7.27;3.40;;;;;;;;;;4940354;28;20288;-75
2022/06/30 10:55:00;;;;;;;4.20;3.40;;;;;;;;;;4936150;28;20328;-74
2022/06/30 10:57:27;;;;;;;8.93;3.40;;;;;;;;;;4936397;28;20236;-73
2022/06/30 10:59:55;;;;;;;6.87;3.57;;;;;;;;;;4939432;28;20206;-74
2022/06/30 11:02:23;;;;;;;7.13;3.30;;;;;;;;;;4940107;28;20311;-75
2022/06/30 11:04:52;;;;;;;6.80;3.27;;;;;;;;;;4947635;28;20227;-75
2022/06/30 11:07:23;;;;;;;5.20;3.70;;;;;;;;;;4937546;28;20208;-75
2022/06/30 11:10:08;;;;;;;5.00;3.03;;;;;;;;;;4935029;28;20674;-74
2022/06/30 11:12:56;;;;;;;4.97;3.57;;;;;;;;;;4939478;28;20236;-75
2022/06/30 11:15:44;;;;;;;6.60;3.10;;;;;;;;;;4934802;28;20232;-75
2022/06/30 11:18:12;;;;;;;4.47;3.60;;;;;;;;;;4936421;28;20296;-74
2022/06/30 11:20:44;;;;;;;7.00;3.23;;;;;;;;;;4872325;28;97094;-75
2022/06/30 11:23:11;;;;;;;5.43;3.70;;;;;;;;;;4905274;29;20220;-75
2022/06/30 11:28:22;;;;;;;8.77;3.70;;;;;;;;;;4883739;29;20219;-75
2022/06/30 11:30:51;;;;;;;5.77;3.77;;;;;;;;;;4907479;29;20259;-74
2022/06/30 11:33:18;;;;;;;5.63;3.40;;;;;;;;;;4903688;29;20207;-74
2022/06/30 11:35:46;;;;;;;4.67;3.73;;;;;;;;;;4901528;29;20235;-74
2022/06/30 11:38:13;;;;;;;4.17;3.60;;;;;;;;;;4905158;29;20218;-74
2022/06/30 11:40:40;;;;;;;6.10;3.50;;;;;;;;;;4908593;29;20295;-75
2022/06/30 11:43:28;;;;;;;5.37;3.20;;;;;;;;;;4903556;29;20254;-74
2022/06/30 11:46:05;;;;;;;5.70;3.40;;;;;;;;;;4897627;29;20301;-74
2022/06/30 11:48:32;;;;;;;5.07;3.37;;;;;;;;;;4903904;29;20212;-74
2022/06/30 11:50:59;;;;;;;8.23;3.90;;;;;;;;;;4907417;29;20317;-74
2022/06/30 11:53:27;;;;;;;8.90;3.80;;;;;;;;;;4903354;29;20659;-78
2022/06/30 11:55:54;;;;;;;5.23;3.60;;;;;;;;;;4906515;29;20234;-78
2022/06/30 11:58:27;;;;;;;5.77;3.60;;;;;;;;;;4906182;29;20300;-75
2022/06/30 12:00:54;;;;;;;4.83;3.40;;;;;;;;;;4902562;29;20231;-77
2022/06/30 12:03:23;;;;;;;5.77;3.40;;;;;;;;;;4903853;29;20650;-75
2022/06/30 12:05:54;;;;;;;6.47;2.90;;;;;;;;;;4907039;29;20520;-74
2022/06/30 12:08:23;;;;;;;7.77;3.57;;;;;;;;;;4912238;29;20219;-73
2022/06/30 12:10:50;;;;;;;4.67;3.03;;;;;;;;;;4905020;29;20236;-76
2022/06/30 12:13:19;;;;;;;4.97;3.00;;;;;;;;;;4907944;29;20209;-78
2022/06/30 12:15:46;;;;;;;5.00;3.20;;;;;;;;;;4906199;29;20239;-73
2022/06/30 12:18:14;;;;;;;6.17;3.20;;;;;;;;;;4905844;29;20601;-75
2022/06/30 12:20:43;;;;;;;4.37;2.57;;;;;;;;;;4905517;29;20292;-75
2022/06/30 12:23:12;;;;;;;5.90;2.93;;;;;;;;;;4903690;29;20215;-80
2022/06/30 12:25:39;;;;;;;5.60;2.93;;;;;;;;;;4903705;29;20234;-75
2022/06/30 12:28:07;;;;;;;5.77;3.13;;;;;;;;;;4905575;29;20326;-74
2022/06/30 12:30:36;;;;;;;4.53;2.93;;;;;;;;;;4903021;29;20221;-75
2022/06/30 12:33:03;;;;;;;5.73;3.07;;;;;;;;;;4906657;29;20746;-75
2022/06/30 12:35:32;;;;;;;5.90;3.37;;;;;;;;;;4908295;29;20817;-75
2022/06/30 12:38:11;;;;;;;8.50;3.10;;;;;;;;;;4910331;29;20208;-77
2022/06/30 12:40:40;;;;;;;9.17;3.47;;;;;;;;;;4909751;29;20203;-75
2022/06/30 12:43:08;;;;;;;8.97;3.20;;;;;;;;;;4906186;29;20298;-75
2022/06/30 12:45:46;;;;;;;5.60;3.27;;;;;;;;;;4913485;29;20325;-76
2022/06/30 12:48:14;;;;;;;6.30;3.07;;;;;;;;;;4908597;29;20585;-76
2022/06/30 12:50:42;;;;;;;4.27;3.47;;;;;;;;;;4917060;29;20235;-73
2022/06/30 12:53:18;;;;;;;11.03;3.60;;;;;;;;;;4909424;29;20214;-74
2022/06/30 12:56:01;;;;;;;4.93;3.30;;;;;;;;;;4909623;29;20377;-75
2022/06/30 12:58:43;;;;;;;6.03;3.80;;;;;;;;;;4905561;29;20291;-75
2022/06/30 13:01:10;;;;;;;9.57;3.73;;;;;;;;;;4915315;29;20296;-76
2022/06/30 13:03:47;;;;;;;5.57;3.50;;;;;;;;;;4906308;29;20220;-75
2022/06/30 13:06:14;;;;;;;5.37;3.30;;;;;;;;;;4906837;29;20681;-75
2022/06/30 13:08:46;;;;;;;5.07;3.40;;;;;;;;;;4904335;29;20309;-74
2022/06/30 13:11:15;;;;;;;4.90;3.50;;;;;;;;;;4904897;29;20229;-75
2022/06/30 13:13:42;;;;;;;5.20;3.43;;;;;;;;;;4905943;29;20211;-76
2022/06/30 13:16:10;;;;;;;5.80;3.57;;;;;;;;;;4905331;29;20203;-76
2022/06/30 13:18:37;;;;;;;5.17;3.33;;;;;;;;;;4907750;29;20267;-78
2022/06/30 13:21:04;;;;;;;11.03;4.03;;;;;;;;;;4909994;29;20209;-77
2022/06/30 13:23:31;;;;;;;6.07;3.67;;;;;;;;;;4908605;29;20233;-75
2022/06/30 13:26:00;;;;;;;8.37;3.73;;;;;;;;;;4907373;29;20301;-75
2022/06/30 13:28:27;;;;;;;5.60;3.53;;;;;;;;;;4910867;29;20271;-74
2022/06/30 13:30:54;;;;;;;7.03;3.70;;;;;;;;;;4911971;29;20243;-74
2022/06/30 13:33:21;;;;;;;9.73;3.93;;;;;;;;;;4904703;29;20703;-75
2022/06/30 13:35:48;;;;;;;6.97;3.77;;;;;;;;;;4906622;29;20235;-75
2022/06/30 13:38:15;;;;;;;6.37;4.20;;;;;;;;;;4906809;29;20259;-78
2022/06/30 13:40:43;;;;;;;5.03;4.00;;;;;;;;;;4905319;29;20292;-77
2022/06/30 13:43:11;;;;;;;6.67;3.70;;;;;;;;;;4908788;29;20204;-77
2022/06/30 13:45:38;;;;;;;6.23;3.53;;;;;;;;;;4909971;29;20422;-75
2022/06/30 13:48:06;;;;;;;6.30;3.70;;;;;;;;;;4907906;29;20215;-75
2022/06/30 13:50:33;;;;;;;7.67;3.63;;;;;;;;;;4909530;29;20230;-74
2022/06/30 13:53:00;;;;;;;6.90;3.77;;;;;;;;;;4910599;29;20203;-77
2022/06/30 13:55:27;;;;;;;6.43;3.53;;;;;;;;;;4904424;29;20738;-73
2022/06/30 13:57:55;;;;;;;6.13;3.40;;;;;;;;;;4905799;29;20243;-74
2022/06/30 14:00:23;;;;;;;4.53;3.50;;;;;;;;;;4904769;29;20250;-74
2022/06/30 14:02:50;;;;;;;7.30;3.87;;;;;;;;;;4905541;29;20671;-75
2022/06/30 14:05:17;;;;;;;5.70;3.80;;;;;;;;;;4904278;29;20636;-75
2022/06/30 14:07:45;;;;;;;6.37;3.83;;;;;;;;;;4909752;29;20210;-75
2022/06/30 14:10:12;;;;;;;5.90;3.83;;;;;;;;;;4906322;29;20217;-75
2022/06/30 14:12:40;;;;;;;7.70;4.07;;;;;;;;;;4910610;29;20215;-73
2022/06/30 14:15:08;;;;;;;6.17;3.90;;;;;;;;;;4906960;29;20257;-77
2022/06/30 14:17:37;;;;;;;7.10;3.77;;;;;;;;;;4905120;29;20204;-74
2022/06/30 14:20:04;;;;;;;8.40;3.77;;;;;;;;;;4905582;29;20211;-74
2022/06/30 14:22:31;;;;;;;6.13;3.93;;;;;;;;;;4908333;29;20665;-75
2022/06/30 14:24:59;;;;;;;8.93;3.50;;;;;;;;;;4905816;29;20323;-76
2022/06/30 14:27:26;;;;;;;4.63;3.70;;;;;;;;;;4907863;29;20340;-75
2022/06/30 14:29:53;;;;;;;5.10;4.00;;;;;;;;;;4913137;29;20539;-76
2022/06/30 14:32:21;;;;;;;5.83;3.97;;;;;;;;;;4908280;29;20313;-79
2022/06/30 14:34:50;;;;;;;10.97;4.77;;;;;;;;;;4906671;29;20235;-74
2022/06/30 14:37:17;;;;;;;5.73;3.80;;;;;;;;;;4905425;29;20646;-75
2022/06/30 14:39:44;;;;;;;7.27;3.60;;;;;;;;;;4907218;29;20849;-79
2022/06/30 14:45:11;;;;;;;5.90;3.80;;;;;;;;;;4865071;29;20571;-76
2022/06/30 14:47:39;;;;;;;7.17;3.70;;;;;;;;;;4866619;29;20308;-75
2022/06/30 14:50:08;;;;;;;8.03;3.97;;;;;;;;;;4881643;29;20237;-75
2022/06/30 14:52:36;;;;;;;6.27;3.70;;;;;;;;;;4903220;29;20283;-78
2022/06/30 14:55:04;;;;;;;5.77;3.60;;;;;;;;;;4908216;29;20319;-74
2022/06/30 14:57:31;;;;;;;5.87;4.10;;;;;;;;;;4906619;29;20216;-75
2022/06/30 14:59:59;;;;;;;5.77;3.90;;;;;;;;;;4905398;29;20207;-77
2022/06/30 15:02:26;;;;;;;7.27;4.40;;;;;;;;;;4902602;29;20577;-75
2022/06/30 15:04:54;;;;;;;5.30;3.60;;;;;;;;;;4905955;29;20245;-77